Time;durP1;ratioP1;P1;durP2;ratioP2;P2;SDS_P1;SDS_P2;PMS_P1;PMS_P2;Temp;Humidity;BMP_temperature;BMP_pressure;BME280_temperature;BME280_humidity;BME280_pressure;Samples;Min_cycle;Max_cycle;Signal;HPM_P1;HPM_P2
2023/12/13 00:00:39;;;;;;;88.85;48.03;;;;;;;8.24;83.74;100200.78;4938037;28;20061;-78
2023/12/13 00:03:07;;;;;;;74.63;48.13;;;;;;;7.94;83.50;100159.28;4930884;28;20210;-79
2023/12/13 00:05:34;;;;;;;76.05;50.70;;;;;;;8.20;83.66;100193.22;4951749;28;20059;-79
2023/12/13 00:08:01;;;;;;;82.93;48.92;;;;;;;8.20;82.70;100199.34;4929537;28;20062;-78
2023/12/13 00:10:33;;;;;;;84.45;47.28;;;;;;;8.10;83.70;100194.00;4952537;28;20078;-81
2023/12/13 00:13:05;;;;;;;85.20;50.42;;;;;;;7.69;84.27;100127.03;4935395;28;20059;-76
2023/12/13 00:15:32;;;;;;;84.85;51.92;;;;;;;7.95;84.24;100176.81;4929865;28;20557;-79
2023/12/13 00:18:04;;;;;;;75.80;47.28;;;;;;;7.99;84.57;100194.09;4940028;28;20105;-77
2023/12/13 00:20:34;;;;;;;82.93;49.85;;;;;;;7.92;84.64;100191.13;4929366;28;20541;-78
2023/12/13 00:23:04;;;;;;;76.07;48.80;;;;;;;7.87;85.12;100195.97;4930744;28;20046;-80
2023/12/13 00:25:32;;;;;;;78.10;49.28;;;;;;;7.91;84.92;100204.47;4934936;28;20050;-80
2023/12/13 00:27:59;;;;;;;77.10;50.22;;;;;;;7.83;85.39;100191.91;4936939;28;20396;-78
2023/12/13 00:30:26;;;;;;;71.50;47.75;;;;;;;7.83;85.29;100196.34;4912067;28;20639;-78
2023/12/13 00:32:53;;;;;;;76.00;47.08;;;;;;;7.62;84.82;100175.19;4937697;28;20112;-80
2023/12/13 00:35:20;;;;;;;73.38;47.67;;;;;;;7.72;84.50;100181.41;4931609;28;20213;-77
2023/12/13 00:37:47;;;;;;;72.45;44.53;;;;;;;7.59;84.53;100160.44;4942771;28;20452;-80
2023/12/13 00:40:18;;;;;;;71.60;45.53;;;;;;;7.49;85.38;100157.72;4934562;28;20057;-79
2023/12/13 00:42:45;;;;;;;73.55;44.13;;;;;;;7.33;85.21;100115.09;4913558;28;20086;-79
2023/12/13 00:45:12;;;;;;;72.75;45.28;;;;;;;7.56;84.94;100151.94;4940240;28;20051;-80
2023/12/13 00:47:41;;;;;;;71.13;43.88;;;;;;;7.66;85.13;100179.25;4941359;28;20063;-78
2023/12/13 00:50:09;;;;;;;71.93;45.50;;;;;;;7.32;84.95;100118.69;4939443;28;20331;-77
2023/12/13 00:52:35;;;;;;;68.88;44.85;;;;;;;7.26;85.52;100096.28;4949505;28;20707;-79
2023/12/13 00:55:07;;;;;;;73.93;45.55;;;;;;;7.37;85.33;100116.50;4929614;28;20138;-79
2023/12/13 00:57:35;;;;;;;72.10;46.50;;;;;;;7.62;85.32;100167.28;4936621;28;20145;-81
2023/12/13 01:00:03;;;;;;;72.40;44.80;;;;;;;7.64;85.79;100178.53;4939865;28;20085;-81
2023/12/13 01:02:30;;;;;;;70.38;44.78;;;;;;;7.56;85.73;100173.06;4936652;28;20082;-78
2023/12/13 01:04:57;;;;;;;70.80;46.83;;;;;;;7.40;86.03;100155.88;4950725;28;20047;-79
2023/12/13 01:07:24;;;;;;;69.82;45.67;;;;;;;7.21;85.81;100121.38;4935103;28;20051;-79
2023/12/13 01:09:56;;;;;;;74.13;46.95;;;;;;;7.53;86.38;100166.25;4943583;28;20047;-78
2023/12/13 01:12:23;;;;;;;72.15;45.17;;;;;;;7.40;86.71;100163.78;4938770;28;20089;-81
2023/12/13 01:14:50;;;;;;;74.13;46.53;;;;;;;7.41;86.41;100168.09;4927529;28;20054;-78
2023/12/13 01:17:17;;;;;;;75.90;46.25;;;;;;;7.39;86.78;100135.69;4946435;28;20058;-81
2023/12/13 01:19:44;;;;;;;81.85;47.17;;;;;;;7.46;86.43;100147.41;4947515;28;20043;-80
2023/12/13 01:22:15;;;;;;;73.75;47.58;;;;;;;7.72;86.32;100168.19;4931995;28;20375;-80
2023/12/13 01:24:42;;;;;;;72.95;47.17;;;;;;;7.69;86.01;100169.28;4936184;28;20968;-78
2023/12/13 01:27:18;;;;;;;70.00;45.42;;;;;;;7.64;85.80;100175.91;4905127;28;20250;-79
2023/12/13 01:29:50;;;;;;;69.95;43.80;;;;;;;7.47;85.45;100143.81;4895679;28;20058;-80
2023/12/13 01:32:17;;;;;;;67.30;45.75;;;;;;;7.71;85.13;100177.91;4933474;28;20147;-79
2023/12/13 01:34:44;;;;;;;72.53;45.03;;;;;;;7.67;84.92;100181.78;4933757;28;20521;-80
2023/12/13 01:37:14;;;;;;;71.43;43.33;;;;;;;7.67;85.20;100195.00;4956225;28;20058;-78
2023/12/13 01:39:42;;;;;;;71.82;44.20;;;;;;;7.48;85.35;100187.75;4957905;28;20046;-77
2023/12/13 01:42:09;;;;;;;71.70;45.25;;;;;;;7.40;86.16;100174.34;4930526;28;20138;-77
2023/12/13 01:44:38;;;;;;;68.47;44.22;;;;;;;7.59;86.27;100202.72;4936788;28;20047;-79
2023/12/13 01:47:12;;;;;;;73.82;44.85;;;;;;;7.42;86.11;100180.31;4923862;28;20046;-80
2023/12/13 01:49:39;;;;;;;65.85;44.30;;;;;;;7.52;86.66;100221.84;4917785;28;20517;-79
2023/12/13 01:52:09;;;;;;;68.72;43.05;;;;;;;7.54;86.23;100196.13;4935977;28;20043;-79
2023/12/13 01:54:37;;;;;;;65.22;44.15;;;;;;;7.66;85.99;100179.25;4926886;28;20435;-77
2023/12/13 01:57:04;;;;;;;65.97;44.67;;;;;;;7.35;86.06;100118.41;4938746;28;20050;-77
2023/12/13 01:59:33;;;;;;;68.05;44.42;;;;;;;7.68;85.81;100170.25;4936643;28;20639;-77
2023/12/13 02:02:00;;;;;;;70.03;44.90;;;;;;;6.73;85.61;100016.25;4942717;28;20456;-76
2023/12/13 02:04:28;;;;;;;72.32;47.33;;;;;;;7.64;85.88;100133.63;4952843;28;20418;-78
2023/12/13 02:06:55;;;;;;;68.68;46.03;;;;;;;7.52;86.70;100127.56;4949882;28;20248;-79
2023/12/13 02:09:22;;;;;;;80.47;47.13;;;;;;;7.37;86.25;100140.25;4941508;28;20360;-77
2023/12/13 02:11:49;;;;;;;71.28;46.95;;;;;;;7.51;86.84;100172.63;4947875;28;20401;-78
2023/12/13 02:14:18;;;;;;;79.78;46.58;;;;;;;7.61;86.34;100162.97;4932279;28;20519;-79
2023/12/13 02:16:45;;;;;;;77.43;47.55;;;;;;;7.46;86.16;100131.56;4938226;28;20057;-78
2023/12/13 02:19:12;;;;;;;75.95;47.13;;;;;;;7.45;86.26;100132.56;4941251;28;20043;-80
2023/12/13 02:21:41;;;;;;;79.28;50.53;;;;;;;7.47;86.51;100138.53;4959374;28;20054;-79
2023/12/13 02:24:08;;;;;;;81.38;50.05;;;;;;;6.99;86.17;100054.53;4913073;28;20459;-80
2023/12/13 02:26:43;;;;;;;75.82;50.47;;;;;;;7.30;87.08;100123.25;4926676;28;20471;-79
2023/12/13 02:29:12;;;;;;;79.25;50.15;;;;;;;7.34;86.85;100116.75;4959100;28;20062;-81
2023/12/13 02:31:40;;;;;;;85.22;50.08;;;;;;;7.06;86.76;100063.63;4947575;28;20066;-81
2023/12/13 02:34:07;;;;;;;87.03;52.45;;;;;;;7.46;87.52;100120.19;4953542;28;20055;-81
2023/12/13 02:36:34;;;;;;;87.22;53.05;;;;;;;7.13;87.53;100047.25;4936439;28;20554;-79
2023/12/13 02:39:04;;;;;;;79.57;50.53;;;;;;;7.41;87.59;100106.53;4936632;28;20103;-80
2023/12/13 02:41:35;;;;;;;77.60;51.67;;;;;;;7.35;87.93;100107.84;4939145;28;20146;-81
2023/12/13 02:44:04;;;;;;;87.10;52.78;;;;;;;7.28;87.53;100085.56;4929952;28;20549;-80
2023/12/13 02:46:31;;;;;;;87.97;53.60;;;;;;;6.90;87.76;100028.88;4933988;28;20055;-80
2023/12/13 02:48:58;;;;;;;87.68;53.38;;;;;;;7.42;87.36;100110.81;4939969;28;20067;-80
2023/12/13 02:51:26;;;;;;;88.80;53.47;;;;;;;6.84;88.03;100018.81;4944486;28;20074;-80
2023/12/13 02:53:53;;;;;;;84.13;52.72;;;;;;;6.97;88.45;100059.09;4942928;28;20109;-82
2023/12/13 02:56:20;;;;;;;82.22;51.88;;;;;;;7.38;88.27;100078.56;4929297;28;21039;-81
2023/12/13 02:58:47;;;;;;;86.15;51.70;;;;;;;7.35;88.07;100080.63;4912288;28;20161;-79
2023/12/13 03:01:15;;;;;;;96.72;55.30;;;;;;;7.45;88.52;100098.22;4920523;28;20043;-80
2023/12/13 03:03:42;;;;;;;90.75;55.95;;;;;;;7.24;88.65;100063.03;4952905;28;20054;-79
2023/12/13 03:06:09;;;;;;;98.50;55.85;;;;;;;7.44;88.09;100083.31;4948852;28;20050;-79
2023/12/13 03:08:36;;;;;;;86.03;54.10;;;;;;;7.27;88.24;100046.94;4942362;28;20055;-79
2023/12/13 03:11:03;;;;;;;90.75;53.55;;;;;;;7.32;88.95;100065.88;4939562;28;20801;-79
2023/12/13 03:13:30;;;;;;;88.65;53.17;;;;;;;7.31;88.70;100068.66;4912488;28;20055;-78
2023/12/13 03:15:57;;;;;;;92.43;54.95;;;;;;;7.45;89.16;100069.16;4922345;28;20061;-78
2023/12/13 03:18:24;;;;;;;95.75;56.40;;;;;;;7.38;89.16;100052.16;4923089;28;20241;-80
2023/12/13 03:20:51;;;;;;;90.47;54.65;;;;;;;6.91;88.10;99967.22;4919229;28;20054;-79
2023/12/13 03:23:18;;;;;;;84.65;52.72;;;;;;;7.31;88.79;100040.44;4939606;28;20090;-80
2023/12/13 03:25:45;;;;;;;96.28;55.08;;;;;;;6.52;88.84;99923.91;4894974;28;20074;-79
2023/12/13 03:28:14;;;;;;;92.65;57.88;;;;;;;7.40;89.57;100055.53;4918559;28;20101;-80
2023/12/13 03:30:45;;;;;;;90.65;56.45;;;;;;;7.23;89.13;100025.25;4938600;28;20411;-80
2023/12/13 03:33:12;;;;;;;84.85;53.92;;;;;;;7.44;89.19;100064.84;4931356;28;20356;-79
2023/12/13 03:35:39;;;;;;;93.53;54.55;;;;;;;7.19;89.35;100023.00;4954096;28;20066;-80
2023/12/13 03:38:06;;;;;;;88.05;53.85;;;;;;;7.28;89.08;100017.78;4938754;28;20049;-79
2023/12/13 03:40:33;;;;;;;87.05;52.42;;;;;;;7.51;89.03;100054.59;4940992;28;20413;-80
2023/12/13 03:43:00;;;;;;;89.03;55.40;;;;;;;7.54;88.91;100037.66;4917011;28;20301;-79
2023/12/13 03:45:27;;;;;;;93.93;55.85;;;;;;;7.52;88.97;100040.41;4928019;28;20047;-79
2023/12/13 03:47:54;;;;;;;93.25;57.15;;;;;;;7.49;89.16;100051.25;4935064;28;20319;-79
2023/12/13 03:50:21;;;;;;;93.57;56.65;;;;;;;7.47;89.05;100043.44;4911207;28;20106;-79
2023/12/13 03:52:49;;;;;;;89.15;52.05;;;;;;;7.35;88.87;100014.59;4915482;28;20105;-79
2023/12/13 03:55:16;;;;;;;86.15;52.83;;;;;;;7.15;88.94;99984.59;4944793;28;20422;-79
2023/12/13 03:57:46;;;;;;;90.95;53.80;;;;;;;7.58;88.94;100052.28;4932411;28;20055;-80
2023/12/13 04:00:13;;;;;;;87.53;53.95;;;;;;;7.53;88.97;100054.47;4914386;28;20231;-80
2023/12/13 04:02:44;;;;;;;89.07;52.33;;;;;;;7.56;89.19;100051.56;4912651;28;20137;-80
2023/12/13 04:05:11;;;;;;;98.10;55.05;;;;;;;7.52;88.82;100010.53;4944630;28;20078;-80
2023/12/13 04:07:38;;;;;;;86.95;52.65;;;;;;;7.58;88.52;100031.16;4933172;28;20054;-78
2023/12/13 04:10:10;;;;;;;85.13;53.63;;;;;;;7.25;88.80;99998.69;4939406;28;20142;-81
2023/12/13 04:12:39;;;;;;;85.63;51.90;;;;;;;7.37;89.06;100016.13;4892768;28;20066;-80
2023/12/13 04:15:08;;;;;;;85.20;54.28;;;;;;;7.41;89.12;100012.28;4914772;28;20142;-80
2023/12/13 04:17:36;;;;;;;81.35;51.05;;;;;;;7.53;89.57;100025.41;4932509;28;20115;-79
2023/12/13 04:20:11;;;;;;;93.80;55.25;;;;;;;7.62;88.84;100025.47;4923481;28;20050;-80
2023/12/13 04:22:37;;;;;;;83.50;51.22;;;;;;;7.47;88.37;100001.19;4925506;28;20062;-81
2023/12/13 04:25:05;;;;;;;89.88;53.03;;;;;;;7.71;88.27;100044.97;4937404;28;20061;-80
2023/12/13 04:27:32;;;;;;;97.95;55.90;;;;;;;7.10;88.09;99939.28;4938862;28;20046;-80
2023/12/13 04:29:59;;;;;;;91.28;54.13;;;;;;;7.27;88.44;99967.72;4930956;28;20052;-80
2023/12/13 04:32:27;;;;;;;88.43;53.30;;;;;;;7.61;88.62;100037.00;4937898;28;20054;-80
2023/12/13 04:34:54;;;;;;;95.40;54.08;;;;;;;7.34;88.68;99982.09;4949419;28;20059;-79
2023/12/13 04:37:21;;;;;;;95.72;55.65;;;;;;;7.37;88.54;99983.63;4962579;28;20047;-79
2023/12/13 04:39:48;;;;;;;100.72;56.20;;;;;;;7.34;88.21;99963.59;4942394;28;20049;-79
2023/12/13 04:42:19;;;;;;;90.63;54.33;;;;;;;7.65;88.54;100029.66;4929138;28;20346;-81
2023/12/13 04:44:47;;;;;;;98.82;55.88;;;;;;;7.43;88.54;100010.34;4932786;28;20410;-81
2023/12/13 04:47:20;;;;;;;103.13;55.92;;;;;;;7.59;89.00;100020.44;4926669;28;20757;-80
2023/12/13 04:49:55;;;;;;;101.80;55.00;;;;;;;7.56;88.94;100022.50;4908470;28;20503;-80
2023/12/13 04:52:27;;;;;;;97.57;56.20;;;;;;;7.44;88.98;100022.56;4917722;28;20133;-80
2023/12/13 04:55:00;;;;;;;100.22;59.35;;;;;;;7.38;89.77;100012.56;4903106;28;20140;-80
2023/12/13 04:57:33;;;;;;;99.07;54.65;;;;;;;7.47;89.66;100037.31;4899560;28;20272;-79
2023/12/13 05:00:01;;;;;;;98.18;54.65;;;;;;;7.44;89.36;100022.56;4894183;28;20864;-79
2023/12/13 05:02:28;;;;;;;103.90;57.95;;;;;;;7.54;88.93;100064.06;4907431;28;20067;-79
2023/12/13 05:04:55;;;;;;;110.63;57.97;;;;;;;7.45;88.56;100034.84;4882305;28;20487;-80
2023/12/13 05:07:22;;;;;;;112.10;58.03;;;;;;;7.51;89.05;100043.19;4929111;28;20078;-79
2023/12/13 05:09:55;;;;;;;96.32;57.58;;;;;;;7.13;89.85;99997.09;4931279;28;20051;-80
2023/12/13 05:12:24;;;;;;;109.72;55.92;;;;;;;7.30;90.22;100019.44;4899205;28;20374;-80
2023/12/13 05:14:51;;;;;;;107.82;56.42;;;;;;;7.45;90.32;100048.03;4909373;28;20263;-80
2023/12/13 05:17:21;;;;;;;105.93;57.20;;;;;;;7.54;89.88;100037.66;4937148;28;20047;-80
2023/12/13 05:19:48;;;;;;;107.68;58.00;;;;;;;7.39;89.97;100008.94;4928594;28;20102;-79
2023/12/13 05:22:18;;;;;;;110.05;57.83;;;;;;;7.24;89.47;99974.09;4919204;28;20050;-78
2023/12/13 05:24:45;;;;;;;109.03;57.60;;;;;;;7.07;89.80;99966.78;4925261;28;21342;-80
2023/12/13 05:27:12;;;;;;;96.75;53.55;;;;;;;7.49;89.43;100041.50;4935032;28;20058;-78
2023/12/13 05:29:43;;;;;;;107.85;56.92;;;;;;;7.45;89.73;100037.47;4929781;28;20206;-80
2023/12/13 05:32:10;;;;;;;105.65;58.85;;;;;;;7.37;89.62;100017.94;4905230;28;20501;-79
2023/12/13 05:34:37;;;;;;;108.28;57.13;;;;;;;7.37;89.84;100020.59;4901729;28;20058;-80
2023/12/13 05:37:10;;;;;;;100.90;57.72;;;;;;;7.24;89.62;99986.47;4894073;28;20054;-79
2023/12/13 05:39:39;;;;;;;100.13;56.08;;;;;;;7.43;89.39;100034.13;4902592;28;20121;-80
2023/12/13 05:42:09;;;;;;;102.78;55.00;;;;;;;7.55;89.16;100039.31;4916372;28;20257;-79
2023/12/13 05:44:40;;;;;;;98.60;53.85;;;;;;;7.35;88.87;100012.78;4889135;28;20241;-80
2023/12/13 05:47:12;;;;;;;113.20;54.83;;;;;;;7.57;89.17;100034.75;4895218;28;20506;-80
2023/12/13 05:49:44;;;;;;;96.57;54.95;;;;;;;7.57;88.64;100021.53;4908440;28;20061;-80
2023/12/13 05:52:12;;;;;;;105.28;55.55;;;;;;;7.53;88.53;100022.78;4913622;28;20598;-80
2023/12/13 05:54:39;;;;;;;103.13;54.95;;;;;;;7.46;88.87;100003.97;4915049;28;20302;-79
2023/12/13 05:57:11;;;;;;;107.18;55.97;;;;;;;7.25;88.43;99964.38;4928685;28;20062;-80
2023/12/13 05:59:42;;;;;;;107.82;56.83;;;;;;;7.55;88.71;100018.19;4919817;28;20736;-80
2023/12/13 06:02:15;;;;;;;114.25;57.92;;;;;;;7.44;89.23;99996.16;4905830;28;20126;-79
2023/12/13 06:04:43;;;;;;;106.63;56.30;;;;;;;7.42;89.61;99998.09;4904604;28;20054;-76
2023/12/13 06:07:10;;;;;;;108.38;58.38;;;;;;;7.41;89.55;99980.59;4902945;28;20057;-77
2023/12/13 06:09:40;;;;;;;103.55;55.50;;;;;;;7.35;89.39;99961.78;4924511;28;20113;-80
2023/12/13 06:12:17;;;;;;;110.25;56.50;;;;;;;7.47;89.80;99985.34;4895761;28;20714;-79
2023/12/13 06:14:48;;;;;;;102.90;54.47;;;;;;;7.48;89.08;99968.53;4894001;28;20332;-81
2023/12/13 06:17:17;;;;;;;110.15;56.97;;;;;;;7.60;88.93;99968.47;4933466;28;20376;-80
2023/12/13 06:19:44;;;;;;;106.68;53.85;;;;;;;7.04;88.42;99907.19;4942326;28;20051;-80
2023/12/13 06:22:12;;;;;;;108.38;54.15;;;;;;;7.49;88.28;99956.16;4936909;28;20102;-79
2023/12/13 06:24:39;;;;;;;105.28;51.92;;;;;;;7.27;87.97;99915.75;4949530;28;20547;-81
2023/12/13 06:27:06;;;;;;;110.88;56.55;;;;;;;7.54;88.20;99958.41;4936816;28;20121;-78
2023/12/13 06:29:33;;;;;;;106.85;52.80;;;;;;;7.56;88.21;99969.69;4927003;28;20506;-80
2023/12/13 06:32:00;;;;;;;109.53;57.28;;;;;;;7.48;88.68;99957.97;4922514;28;20085;-79
2023/12/13 06:34:30;;;;;;;102.00;55.35;;;;;;;7.51;89.23;99959.50;4949053;28;20051;-80
2023/12/13 06:37:00;;;;;;;106.32;53.97;;;;;;;7.53;89.38;99967.31;4964233;28;20057;-79
2023/12/13 06:39:27;;;;;;;103.00;53.80;;;;;;;7.56;89.10;99967.03;4970646;28;20051;-79
2023/12/13 06:41:55;;;;;;;107.72;53.72;;;;;;;7.29;89.11;99934.13;4937064;28;20059;-80
2023/12/13 06:44:22;;;;;;;103.25;54.75;;;;;;;7.48;89.37;99950.03;4948137;28;20042;-78
2023/12/13 06:46:57;;;;;;;105.60;54.50;;;;;;;7.57;89.17;99950.22;4951592;28;20330;-79
2023/12/13 06:49:34;;;;;;;110.38;55.70;;;;;;;7.48;89.17;99939.47;4968670;28;20498;-79
2023/12/13 06:52:02;;;;;;;106.53;53.65;;;;;;;7.56;89.14;99945.91;4943572;28;20422;-80
2023/12/13 06:54:29;;;;;;;96.63;53.50;;;;;;;7.37;89.38;99899.94;4933620;28;20485;-80
2023/12/13 06:56:56;;;;;;;99.22;53.97;;;;;;;7.49;89.10;99913.91;4963836;28;20109;-80
2023/12/13 06:59:23;;;;;;;111.75;55.92;;;;;;;7.68;88.98;99942.19;4952966;28;20054;-80
2023/12/13 07:01:50;;;;;;;113.57;56.00;;;;;;;7.64;89.17;99931.03;4955602;28;20046;-81
2023/12/13 07:04:19;;;;;;;102.28;55.42;;;;;;;7.43;88.69;99888.88;4930307;28;20062;-80
2023/12/13 07:06:49;;;;;;;110.07;54.17;;;;;;;7.48;88.50;99891.94;4933867;28;20042;-81
2023/12/13 07:09:18;;;;;;;113.43;57.20;;;;;;;7.36;88.71;99879.81;4960280;28;20078;-79
2023/12/13 07:11:47;;;;;;;102.25;52.85;;;;;;;7.75;88.56;99956.53;4929295;28;20311;-80
2023/12/13 07:14:14;;;;;;;104.88;55.53;;;;;;;7.57;88.03;99900.03;4946277;28;20058;-82
2023/12/13 07:16:44;;;;;;;98.55;54.40;;;;;;;7.63;87.85;99915.34;4970419;28;20514;-79
2023/12/13 07:19:11;;;;;;;114.97;56.00;;;;;;;7.38;87.24;99858.53;4934807;28;20050;-80
2023/12/13 07:21:41;;;;;;;102.90;54.05;;;;;;;7.83;87.45;99927.63;4966573;28;20532;-80
2023/12/13 07:24:08;;;;;;;107.63;56.70;;;;;;;7.64;87.70;99874.75;4938741;28;20058;-80
2023/12/13 07:26:35;;;;;;;105.90;53.97;;;;;;;7.87;87.57;99902.63;4947483;28;20108;-80
2023/12/13 07:29:02;;;;;;;101.95;53.25;;;;;;;7.80;87.08;99896.19;4944227;28;20078;-80
2023/12/13 07:31:36;;;;;;;101.43;54.88;;;;;;;7.39;87.17;99842.56;4924849;28;20129;-80
2023/12/13 07:34:03;;;;;;;92.68;50.13;;;;;;;7.84;86.87;99913.47;4945764;28;20058;-79
2023/12/13 07:36:30;;;;;;;110.22;58.03;;;;;;;7.84;87.35;99924.03;4957288;28;20561;-80
2023/12/13 07:38:57;;;;;;;96.60;52.38;;;;;;;7.54;87.45;99879.16;4964003;28;20074;-82
2023/12/13 07:41:28;;;;;;;99.75;48.55;;;;;;;7.93;87.13;99927.66;4949544;28;20149;-81
2023/12/13 07:44:00;;;;;;;100.47;50.90;;;;;;;7.78;86.60;99914.00;4956484;28;20449;-80
2023/12/13 07:46:27;;;;;;;90.82;49.80;;;;;;;7.89;86.56;99928.91;4923396;28;20069;-80
2023/12/13 07:49:05;;;;;;;90.10;50.42;;;;;;;7.55;86.34;99891.41;4877096;28;20054;-81
2023/12/13 07:51:40;;;;;;;100.38;52.33;;;;;;;7.85;86.59;99927.50;4923288;28;20426;-80
2023/12/13 07:54:16;;;;;;;96.70;52.50;;;;;;;7.77;86.95;99911.47;4920715;28;20293;-79
2023/12/13 07:56:50;;;;;;;100.55;51.60;;;;;;;7.79;86.67;99899.81;4914962;28;20556;-80
2023/12/13 07:59:18;;;;;;;102.45;54.03;;;;;;;7.93;86.92;99925.00;4939589;28;20291;-82
2023/12/13 08:01:45;;;;;;;99.85;51.67;;;;;;;7.40;86.94;99831.06;4938099;28;20279;-80
2023/12/13 08:04:15;;;;;;;98.88;50.88;;;;;;;7.96;86.42;99916.84;4932277;28;20061;-80
2023/12/13 08:06:42;;;;;;;103.20;52.63;;;;;;;7.98;86.78;99906.94;4900303;28;20094;-80
2023/12/13 08:09:12;;;;;;;98.03;53.10;;;;;;;7.78;86.36;99877.00;4890720;28;20264;-80
2023/12/13 08:11:40;;;;;;;100.72;52.83;;;;;;;7.86;86.18;99890.38;4918827;28;20043;-80
2023/12/13 08:14:09;;;;;;;104.40;54.28;;;;;;;7.46;86.40;99838.41;4924251;28;20345;-80
2023/12/13 08:16:36;;;;;;;113.00;53.67;;;;;;;8.00;86.17;99917.38;4926751;28;20039;-79
2023/12/13 08:19:05;;;;;;;104.47;53.65;;;;;;;7.95;85.91;99894.00;4952044;28;20445;-79
2023/12/13 08:21:32;;;;;;;109.50;52.50;;;;;;;7.81;86.62;99895.22;4936560;28;20054;-78
2023/12/13 08:24:00;;;;;;;104.75;52.95;;;;;;;7.79;87.26;99894.53;4909711;28;20059;-79
2023/12/13 08:26:27;;;;;;;104.25;52.53;;;;;;;6.83;86.96;99737.50;4938340;28;20238;-82
2023/12/13 08:28:57;;;;;;;105.00;53.08;;;;;;;8.04;86.58;99914.34;4944148;28;20837;-79
2023/12/13 08:31:37;;;;;;;108.43;52.22;;;;;;;8.02;86.37;99918.09;4912484;28;20047;-81
2023/12/13 08:34:04;;;;;;;108.50;53.58;;;;;;;7.52;86.19;99817.72;4925975;28;20047;-78
2023/12/13 08:36:31;;;;;;;106.88;50.92;;;;;;;8.01;86.01;99877.59;4941247;28;20135;-80
2023/12/13 08:39:03;;;;;;;97.05;51.20;;;;;;;8.11;86.15;99904.06;4962011;28;20097;-80
2023/12/13 08:41:32;;;;;;;105.78;53.70;;;;;;;8.11;85.81;99917.28;4918907;28;20415;-80
2023/12/13 08:43:59;;;;;;;108.53;53.15;;;;;;;8.08;86.17;99920.16;4924455;28;20494;-80
2023/12/13 08:46:33;;;;;;;104.82;55.67;;;;;;;8.09;85.77;99913.94;4933009;28;20050;-80
2023/12/13 08:49:01;;;;;;;117.47;54.88;;;;;;;8.13;85.75;99908.22;4925643;28;20051;-80
2023/12/13 08:51:28;;;;;;;118.68;53.30;;;;;;;8.00;86.26;99890.94;4932185;28;20267;-79
2023/12/13 08:54:00;;;;;;;121.72;55.20;;;;;;;8.07;85.96;99908.75;4912597;28;20113;-81
2023/12/13 08:56:34;;;;;;;116.15;54.00;;;;;;;8.16;86.42;99932.72;4926942;28;20054;-79
2023/12/13 08:59:02;;;;;;;118.22;54.10;;;;;;;8.16;86.28;99928.25;4934092;28;20061;-80
2023/12/13 09:01:29;;;;;;;121.90;53.38;;;;;;;8.16;86.31;99936.19;4922871;28;20055;-79
2023/12/13 09:03:56;;;;;;;130.57;59.05;;;;;;;8.16;86.45;99943.31;4912196;28;20967;-79
2023/12/13 09:06:23;;;;;;;123.60;54.13;;;;;;;7.99;86.55;99905.16;4910998;28;20429;-80
2023/12/13 09:08:50;;;;;;;126.53;55.40;;;;;;;7.96;86.85;99900.13;4896574;28;20050;-79
2023/12/13 09:11:17;;;;;;;129.27;56.33;;;;;;;7.83;87.07;99895.91;4914035;28;20054;-79
2023/12/13 09:13:48;;;;;;;119.10;52.33;;;;;;;7.99;87.02;99926.28;4938615;28;20503;-79
2023/12/13 09:16:16;;;;;;;125.32;53.83;;;;;;;8.11;86.63;99941.06;4936276;28;20137;-79
2023/12/13 09:18:44;;;;;;;132.63;55.50;;;;;;;8.08;87.01;99943.97;4944365;28;20069;-82
2023/12/13 09:21:11;;;;;;;119.85;56.10;;;;;;;7.97;86.88;99912.38;4933663;28;20463;-79
2023/12/13 09:23:40;;;;;;;114.63;52.33;;;;;;;8.06;87.38;99948.56;4921056;28;20051;-79
2023/12/13 09:26:16;;;;;;;120.78;55.35;;;;;;;7.96;87.52;99937.97;4936387;28;20081;-80
2023/12/13 09:28:48;;;;;;;119.57;53.88;;;;;;;8.02;88.29;99941.88;4950234;28;20335;-80
2023/12/13 09:31:15;;;;;;;121.97;53.90;;;;;;;7.93;87.98;99928.47;4919924;28;20077;-79
2023/12/13 09:33:42;;;;;;;135.77;56.72;;;;;;;7.72;88.50;99903.97;4953093;28;20055;-80
2023/12/13 09:36:09;;;;;;;118.97;54.30;;;;;;;7.51;89.26;99869.72;4954568;28;20046;-80
2023/12/13 09:38:36;;;;;;;111.72;54.20;;;;;;;7.96;89.09;99939.75;4950555;28;20046;-78
2023/12/13 09:41:05;;;;;;;114.20;53.03;;;;;;;7.85;88.94;99930.16;4919146;28;20106;-79
2023/12/13 09:43:39;;;;;;;122.78;52.22;;;;;;;7.93;89.25;99925.00;4887776;28;20414;-79
2023/12/13 09:46:12;;;;;;;114.97;53.28;;;;;;;7.82;90.38;99910.13;4898880;28;20399;-78
2023/12/13 09:48:39;;;;;;;110.25;51.25;;;;;;;7.74;89.73;99888.81;4897008;28;20051;-79
2023/12/13 09:51:09;;;;;;;99.68;48.80;;;;;;;7.98;90.41;99924.59;4916591;28;20435;-79
2023/12/13 09:53:38;;;;;;;105.40;47.15;;;;;;;7.96;90.39;99921.25;4931921;28;20442;-79
2023/12/13 09:56:14;;;;;;;90.50;46.88;;;;;;;7.55;89.40;99830.63;4926332;28;20576;-79
2023/12/13 09:58:45;;;;;;;89.60;45.78;;;;;;;7.90;89.36;99878.56;4934360;28;20180;-79
2023/12/13 10:01:14;;;;;;;84.03;42.53;;;;;;;8.01;88.62;99896.09;4929831;28;20058;-78
2023/12/13 10:03:42;;;;;;;81.13;43.03;;;;;;;7.68;88.75;99852.38;4896322;28;20299;-79
2023/12/13 10:06:12;;;;;;;80.45;41.17;;;;;;;7.82;88.90;99886.34;4908739;28;20069;-79
2023/12/13 10:08:38;;;;;;;89.47;42.85;;;;;;;7.99;89.63;99894.56;4931896;28;20101;-79
2023/12/13 10:11:06;;;;;;;85.68;44.22;;;;;;;8.07;90.08;99907.94;4929824;28;20085;-79
2023/12/13 10:13:34;;;;;;;80.40;42.75;;;;;;;7.78;89.39;99860.31;4927109;28;20122;-80
2023/12/13 10:16:14;;;;;;;72.57;40.63;;;;;;;8.07;90.25;99905.28;4894340;28;20039;-81
2023/12/13 10:18:41;;;;;;;76.53;40.10;;;;;;;8.04;89.95;99895.00;4928164;28;20896;-80
2023/12/13 10:21:09;;;;;;;72.25;39.58;;;;;;;8.12;90.57;99906.53;4901273;28;20433;-79
2023/12/13 10:23:36;;;;;;;68.65;40.70;;;;;;;8.01;90.48;99887.31;4930893;28;20050;-80
2023/12/13 10:26:05;;;;;;;72.45;41.17;;;;;;;8.24;89.54;99894.03;4932087;28;20458;-79
2023/12/13 10:28:35;;;;;;;77.93;41.47;;;;;;;8.10;89.53;99875.94;4916144;28;20046;-80
2023/12/13 10:31:08;;;;;;;78.13;40.78;;;;;;;8.15;90.66;99889.56;4914873;28;20082;-79
2023/12/13 10:33:42;;;;;;;73.38;38.40;;;;;;;8.12;90.76;99879.28;4881517;28;20047;-80
2023/12/13 10:36:16;;;;;;;77.55;39.55;;;;;;;8.16;90.03;99848.94;4907763;28;20050;-81
2023/12/13 10:38:45;;;;;;;75.03;39.47;;;;;;;8.17;89.41;99853.25;4924647;28;20521;-81
2023/12/13 10:41:16;;;;;;;63.90;36.45;;;;;;;8.26;89.78;99872.75;4883093;28;20051;-80
2023/12/13 10:43:45;;;;;;;69.57;37.20;;;;;;;7.96;89.50;99813.75;4933371;28;20047;-80
2023/12/13 10:46:16;;;;;;;67.53;37.00;;;;;;;8.26;89.91;99855.06;4930635;28;20303;-80
2023/12/13 10:48:43;;;;;;;71.65;38.67;;;;;;;7.58;90.14;99748.50;4910432;28;20321;-79
2023/12/13 10:51:12;;;;;;;66.47;35.97;;;;;;;8.20;90.22;99829.16;4906916;28;20651;-77
2023/12/13 10:53:41;;;;;;;64.32;36.45;;;;;;;8.28;90.15;99824.03;4921208;28;20050;-80
2023/12/13 10:56:09;;;;;;;57.13;34.95;;;;;;;8.13;90.56;99812.19;4903183;28;20456;-81
2023/12/13 10:58:38;;;;;;;58.90;34.92;;;;;;;8.31;90.39;99826.38;4935963;28;20438;-81
2023/12/13 11:01:08;;;;;;;56.75;34.90;;;;;;;7.77;92.04;99719.44;4925356;28;20126;-82
2023/12/13 11:03:45;;;;;;;61.85;34.03;;;;;;;8.37;92.01;99805.63;4934303;28;20063;-81
2023/12/13 11:06:13;;;;;;;56.85;35.00;;;;;;;8.28;91.17;99780.88;4927516;28;20057;-84
2023/12/13 11:08:45;;;;;;;55.72;32.72;;;;;;;8.28;90.64;99763.22;4948670;28;20050;-80
2023/12/13 11:11:15;;;;;;;57.08;34.10;;;;;;;8.43;90.41;99787.44;4928198;28;20053;-80
2023/12/13 11:13:46;;;;;;;51.53;33.00;;;;;;;8.55;90.28;99796.03;4951073;28;20070;-80
2023/12/13 11:16:17;;;;;;;57.33;34.08;;;;;;;8.38;89.84;99765.00;4931431;28;20058;-79
2023/12/13 11:18:46;;;;;;;52.97;33.42;;;;;;;8.10;90.30;99725.25;4941478;28;20650;-78
2023/12/13 11:21:31;;;;;;;54.25;31.77;;;;;;;8.53;89.68;99780.28;4936505;28;20290;-79
2023/12/13 11:24:10;;;;;;;50.63;32.58;;;;;;;8.64;89.00;99787.25;4908532;28;20902;-78
2023/12/13 11:26:42;;;;;;;50.10;32.78;;;;;;;8.69;89.08;99771.78;4948870;28;20219;-80